sensor_id;sensor_type;location;lat;lon;timestamp;temperature;humidity
33717;DHT22;20046;50.746;7.072;2023-02-14T00:01:11;4.30;99.90
33717;DHT22;20046;50.746;7.072;2023-02-14T00:03:38;4.30;99.90
33717;DHT22;20046;50.746;7.072;2023-02-14T00:06:06;4.20;99.90
33717;DHT22;20046;50.746;7.072;2023-02-14T00:08:32;4.20;99.90
33717;DHT22;20046;50.746;7.072;2023-02-14T00:10:57;4.10;99.90
33717;DHT22;20046;50.746;7.072;2023-02-14T00:13:23;4.10;99.90
33717;DHT22;20046;50.746;7.072;2023-02-14T00:15:48;4.10;99.90
33717;DHT22;20046;50.746;7.072;2023-02-14T00:18:14;4.00;99.90
33717;DHT22;20046;50.746;7.072;2023-02-14T00:20:39;4.00;99.90
33717;DHT22;20046;50.746;7.072;2023-02-14T00:23:05;4.00;99.90
33717;DHT22;20046;50.746;7.072;2023-02-14T00:25:33;3.90;99.90
33717;DHT22;20046;50.746;7.072;2023-02-14T00:27:58;3.90;99.90
33717;DHT22;20046;50.746;7.072;2023-02-14T00:30:24;3.90;99.90
33717;DHT22;20046;50.746;7.072;2023-02-14T00:32:50;3.80;99.90
33717;DHT22;20046;50.746;7.072;2023-02-14T00:35:15;3.80;99.90
33717;DHT22;20046;50.746;7.072;2023-02-14T00:37:41;3.70;99.90
33717;DHT22;20046;50.746;7.072;2023-02-14T00:40:07;3.60;99.90
33717;DHT22;20046;50.746;7.072;2023-02-14T00:42:33;3.60;99.90
33717;DHT22;20046;50.746;7.072;2023-02-14T00:44:58;3.50;99.90
33717;DHT22;20046;50.746;7.072;2023-02-14T00:47:24;3.50;99.90
33717;DHT22;20046;50.746;7.072;2023-02-14T00:49:50;3.40;99.90
33717;DHT22;20046;50.746;7.072;2023-02-14T00:52:15;3.40;99.90
33717;DHT22;20046;50.746;7.072;2023-02-14T00:54:41;3.40;99.90
33717;DHT22;20046;50.746;7.072;2023-02-14T00:57:06;3.50;99.90
33717;DHT22;20046;50.746;7.072;2023-02-14T00:59:32;3.50;99.90
33717;DHT22;20046;50.746;7.072;2023-02-14T01:02:25;3.50;99.90
33717;DHT22;20046;50.746;7.072;2023-02-14T01:04:51;3.50;99.90
33717;DHT22;20046;50.746;7.072;2023-02-14T01:07:16;3.60;99.90
33717;DHT22;20046;50.746;7.072;2023-02-14T01:09:42;3.50;99.90
33717;DHT22;20046;50.746;7.072;2023-02-14T01:12:07;3.50;99.90
33717;DHT22;20046;50.746;7.072;2023-02-14T01:14:33;3.50;99.90
33717;DHT22;20046;50.746;7.072;2023-02-14T01:17:32;3.40;99.90
33717;DHT22;20046;50.746;7.072;2023-02-14T01:19:58;3.40;99.90
33717;DHT22;20046;50.746;7.072;2023-02-14T01:29:07;3.30;99.90
33717;DHT22;20046;50.746;7.072;2023-02-14T01:31:34;3.30;99.90
33717;DHT22;20046;50.746;7.072;2023-02-14T01:33:59;3.20;99.90
33717;DHT22;20046;50.746;7.072;2023-02-14T01:59:59;3.10;99.90
33717;DHT22;20046;50.746;7.072;2023-02-14T02:35:01;3.00;99.90
33717;DHT22;20046;50.746;7.072;2023-02-14T02:37:34;3.10;99.90
33717;DHT22;20046;50.746;7.072;2023-02-14T02:43:02;3.00;99.90
33717;DHT22;20046;50.746;7.072;2023-02-14T02:46:04;3.00;99.90
33717;DHT22;20046;50.746;7.072;2023-02-14T02:51:50;3.00;99.90
33717;DHT22;20046;50.746;7.072;2023-02-14T02:54:41;3.10;99.90
33717;DHT22;20046;50.746;7.072;2023-02-14T02:57:14;3.00;99.90
33717;DHT22;20046;50.746;7.072;2023-02-14T02:59:43;3.00;99.90
33717;DHT22;20046;50.746;7.072;2023-02-14T03:02:23;3.00;99.90
33717;DHT22;20046;50.746;7.072;2023-02-14T03:04:52;3.00;99.90
33717;DHT22;20046;50.746;7.072;2023-02-14T03:07:37;3.00;99.90
33717;DHT22;20046;50.746;7.072;2023-02-14T03:10:16;2.90;99.90
33717;DHT22;20046;50.746;7.072;2023-02-14T03:24:52;2.90;99.90
33717;DHT22;20046;50.746;7.072;2023-02-14T03:27:30;2.90;99.90
33717;DHT22;20046;50.746;7.072;2023-02-14T03:30:02;2.90;99.90
33717;DHT22;20046;50.746;7.072;2023-02-14T03:32:58;2.80;99.90
33717;DHT22;20046;50.746;7.072;2023-02-14T03:35:39;2.70;99.90
33717;DHT22;20046;50.746;7.072;2023-02-14T03:38:34;2.70;99.90
33717;DHT22;20046;50.746;7.072;2023-02-14T03:41:03;2.70;99.90
33717;DHT22;20046;50.746;7.072;2023-02-14T03:43:36;2.70;99.90
33717;DHT22;20046;50.746;7.072;2023-02-14T03:46:41;2.70;99.90
33717;DHT22;20046;50.746;7.072;2023-02-14T03:49:03;2.60;99.90
33717;DHT22;20046;50.746;7.072;2023-02-14T03:51:30;2.70;99.90
33717;DHT22;20046;50.746;7.072;2023-02-14T03:54:03;2.70;99.90
33717;DHT22;20046;50.746;7.072;2023-02-14T03:56:48;2.70;99.90
33717;DHT22;20046;50.746;7.072;2023-02-14T03:59:16;2.70;99.90
33717;DHT22;20046;50.746;7.072;2023-02-14T04:01:53;2.80;99.90
33717;DHT22;20046;50.746;7.072;2023-02-14T04:04:22;2.70;99.90
33717;DHT22;20046;50.746;7.072;2023-02-14T04:06:49;2.70;99.90
33717;DHT22;20046;50.746;7.072;2023-02-14T04:09:15;2.70;99.90
33717;DHT22;20046;50.746;7.072;2023-02-14T04:11:40;2.70;99.90
33717;DHT22;20046;50.746;7.072;2023-02-14T04:14:06;2.70;99.90
33717;DHT22;20046;50.746;7.072;2023-02-14T04:16:32;2.60;99.90
33717;DHT22;20046;50.746;7.072;2023-02-14T04:19:20;2.60;99.90
33717;DHT22;20046;50.746;7.072;2023-02-14T04:21:50;2.60;99.90
33717;DHT22;20046;50.746;7.072;2023-02-14T04:24:16;2.60;99.90
33717;DHT22;20046;50.746;7.072;2023-02-14T04:26:42;2.60;99.90
33717;DHT22;20046;50.746;7.072;2023-02-14T04:29:19;2.50;99.90
33717;DHT22;20046;50.746;7.072;2023-02-14T04:31:45;2.50;99.90
33717;DHT22;20046;50.746;7.072;2023-02-14T04:34:11;2.50;99.90
33717;DHT22;20046;50.746;7.072;2023-02-14T04:36:37;2.50;99.90
33717;DHT22;20046;50.746;7.072;2023-02-14T04:39:02;2.50;99.90
33717;DHT22;20046;50.746;7.072;2023-02-14T04:41:28;2.50;99.90
33717;DHT22;20046;50.746;7.072;2023-02-14T04:43:54;2.50;99.90
33717;DHT22;20046;50.746;7.072;2023-02-14T04:46:19;2.50;99.90
33717;DHT22;20046;50.746;7.072;2023-02-14T04:48:45;2.50;99.90
33717;DHT22;20046;50.746;7.072;2023-02-14T04:51:10;2.50;99.90
33717;DHT22;20046;50.746;7.072;2023-02-14T04:53:36;2.50;99.90
33717;DHT22;20046;50.746;7.072;2023-02-14T04:56:05;2.60;99.90
33717;DHT22;20046;50.746;7.072;2023-02-14T04:58:31;2.60;99.90
33717;DHT22;20046;50.746;7.072;2023-02-14T05:00:57;2.60;99.90
33717;DHT22;20046;50.746;7.072;2023-02-14T05:03:23;2.70;99.90
33717;DHT22;20046;50.746;7.072;2023-02-14T05:05:48;2.60;99.90
33717;DHT22;20046;50.746;7.072;2023-02-14T05:08:14;2.70;99.90
33717;DHT22;20046;50.746;7.072;2023-02-14T05:10:40;2.70;99.90
33717;DHT22;20046;50.746;7.072;2023-02-14T05:13:05;2.70;99.90
33717;DHT22;20046;50.746;7.072;2023-02-14T05:15:31;2.60;99.90
33717;DHT22;20046;50.746;7.072;2023-02-14T05:17:57;2.70;99.90
33717;DHT22;20046;50.746;7.072;2023-02-14T05:20:27;2.70;99.90
33717;DHT22;20046;50.746;7.072;2023-02-14T05:22:52;2.70;99.90
33717;DHT22;20046;50.746;7.072;2023-02-14T05:25:18;2.70;99.90
33717;DHT22;20046;50.746;7.072;2023-02-14T05:27:43;2.70;99.90
33717;DHT22;20046;50.746;7.072;2023-02-14T05:30:10;2.80;99.90
33717;DHT22;20046;50.746;7.072;2023-02-14T05:32:35;2.80;99.90
33717;DHT22;20046;50.746;7.072;2023-02-14T05:35:01;2.80;99.90
33717;DHT22;20046;50.746;7.072;2023-02-14T05:37:27;2.80;99.90
33717;DHT22;20046;50.746;7.072;2023-02-14T05:39:52;2.90;99.90
33717;DHT22;20046;50.746;7.072;2023-02-14T05:42:18;2.90;99.90
33717;DHT22;20046;50.746;7.072;2023-02-14T05:44:43;3.00;99.90
33717;DHT22;20046;50.746;7.072;2023-02-14T05:47:09;3.10;99.90
33717;DHT22;20046;50.746;7.072;2023-02-14T05:49:35;3.10;99.90
33717;DHT22;20046;50.746;7.072;2023-02-14T05:52:00;3.20;99.90
33717;DHT22;20046;50.746;7.072;2023-02-14T05:54:26;3.20;99.90
33717;DHT22;20046;50.746;7.072;2023-02-14T05:56:52;3.30;99.90
33717;DHT22;20046;50.746;7.072;2023-02-14T05:59:17;3.30;99.90
33717;DHT22;20046;50.746;7.072;2023-02-14T06:01:43;3.40;99.90
33717;DHT22;20046;50.746;7.072;2023-02-14T06:04:08;3.40;99.90
33717;DHT22;20046;50.746;7.072;2023-02-14T06:06:34;3.40;99.90
33717;DHT22;20046;50.746;7.072;2023-02-14T06:08:59;3.40;99.90
33717;DHT22;20046;50.746;7.072;2023-02-14T06:11:25;3.40;99.90
33717;DHT22;20046;50.746;7.072;2023-02-14T06:13:51;3.30;99.90
33717;DHT22;20046;50.746;7.072;2023-02-14T06:16:16;3.30;99.90
33717;DHT22;20046;50.746;7.072;2023-02-14T06:18:42;3.30;99.90
33717;DHT22;20046;50.746;7.072;2023-02-14T06:21:07;3.30;99.90
33717;DHT22;20046;50.746;7.072;2023-02-14T06:23:33;3.30;99.90
33717;DHT22;20046;50.746;7.072;2023-02-14T06:25:59;3.30;99.90
33717;DHT22;20046;50.746;7.072;2023-02-14T06:28:24;3.30;99.90
33717;DHT22;20046;50.746;7.072;2023-02-14T06:30:50;3.40;99.90
33717;DHT22;20046;50.746;7.072;2023-02-14T06:33:16;3.40;99.90
33717;DHT22;20046;50.746;7.072;2023-02-14T06:35:41;3.40;99.90
33717;DHT22;20046;50.746;7.072;2023-02-14T06:38:07;3.50;99.90
33717;DHT22;20046;50.746;7.072;2023-02-14T06:40:32;3.50;99.90
33717;DHT22;20046;50.746;7.072;2023-02-14T06:42:58;3.50;99.90
33717;DHT22;20046;50.746;7.072;2023-02-14T06:45:23;3.60;99.90
33717;DHT22;20046;50.746;7.072;2023-02-14T06:47:49;3.60;99.90
33717;DHT22;20046;50.746;7.072;2023-02-14T06:50:15;3.60;99.90
33717;DHT22;20046;50.746;7.072;2023-02-14T06:52:40;3.70;99.90
33717;DHT22;20046;50.746;7.072;2023-02-14T06:55:07;3.70;99.90
33717;DHT22;20046;50.746;7.072;2023-02-14T06:57:33;3.70;99.90
33717;DHT22;20046;50.746;7.072;2023-02-14T06:59:58;3.80;99.90
33717;DHT22;20046;50.746;7.072;2023-02-14T07:02:24;3.80;99.90
33717;DHT22;20046;50.746;7.072;2023-02-14T07:04:49;4.00;99.90
33717;DHT22;20046;50.746;7.072;2023-02-14T07:07:15;4.30;99.90
33717;DHT22;20046;50.746;7.072;2023-02-14T07:09:41;4.50;99.90
33717;DHT22;20046;50.746;7.072;2023-02-14T07:12:06;4.70;99.90
33717;DHT22;20046;50.746;7.072;2023-02-14T07:14:32;4.90;99.90
33717;DHT22;20046;50.746;7.072;2023-02-14T07:16:57;5.00;99.90
33717;DHT22;20046;50.746;7.072;2023-02-14T07:19:23;5.00;99.90
33717;DHT22;20046;50.746;7.072;2023-02-14T07:21:49;5.10;99.90
33717;DHT22;20046;50.746;7.072;2023-02-14T07:24:14;5.20;99.90
33717;DHT22;20046;50.746;7.072;2023-02-14T07:26:40;5.30;99.90
33717;DHT22;20046;50.746;7.072;2023-02-14T07:29:05;5.40;99.90
33717;DHT22;20046;50.746;7.072;2023-02-14T07:31:31;5.40;99.90
33717;DHT22;20046;50.746;7.072;2023-02-14T07:33:56;5.60;99.90
33717;DHT22;20046;50.746;7.072;2023-02-14T07:36:25;5.90;99.90
33717;DHT22;20046;50.746;7.072;2023-02-14T07:38:51;6.20;99.90
33717;DHT22;20046;50.746;7.072;2023-02-14T07:41:16;6.60;99.90
33717;DHT22;20046;50.746;7.072;2023-02-14T07:43:42;6.70;99.90
33717;DHT22;20046;50.746;7.072;2023-02-14T07:46:07;7.20;99.90
33717;DHT22;20046;50.746;7.072;2023-02-14T07:48:33;7.50;99.90
33717;DHT22;20046;50.746;7.072;2023-02-14T07:50:59;7.70;99.90
33717;DHT22;20046;50.746;7.072;2023-02-14T07:53:24;8.10;99.90
33717;DHT22;20046;50.746;7.072;2023-02-14T07:55:51;8.20;99.90
33717;DHT22;20046;50.746;7.072;2023-02-14T07:58:17;8.20;99.90
33717;DHT22;20046;50.746;7.072;2023-02-14T08:00:43;8.10;99.90
33717;DHT22;20046;50.746;7.072;2023-02-14T08:03:11;8.20;99.90
33717;DHT22;20046;50.746;7.072;2023-02-14T08:05:37;8.30;99.90
33717;DHT22;20046;50.746;7.072;2023-02-14T08:08:02;8.50;99.90
33717;DHT22;20046;50.746;7.072;2023-02-14T08:10:28;8.60;99.90
33717;DHT22;20046;50.746;7.072;2023-02-14T08:12:53;8.70;99.90
33717;DHT22;20046;50.746;7.072;2023-02-14T08:15:30;8.90;99.90
33717;DHT22;20046;50.746;7.072;2023-02-14T08:18:15;9.20;99.90
33717;DHT22;20046;50.746;7.072;2023-02-14T08:20:43;9.20;99.90
33717;DHT22;20046;50.746;7.072;2023-02-14T08:23:08;9.20;99.90
33717;DHT22;20046;50.746;7.072;2023-02-14T08:25:34;9.10;99.90
33717;DHT22;20046;50.746;7.072;2023-02-14T08:28:04;8.90;99.90
33717;DHT22;20046;50.746;7.072;2023-02-14T08:30:31;9.20;99.90
33717;DHT22;20046;50.746;7.072;2023-02-14T08:32:56;10.00;99.90
33717;DHT22;20046;50.746;7.072;2023-02-14T08:35:22;10.10;99.90
33717;DHT22;20046;50.746;7.072;2023-02-14T08:37:48;9.90;99.90
33717;DHT22;20046;50.746;7.072;2023-02-14T08:40:13;9.70;99.90
33717;DHT22;20046;50.746;7.072;2023-02-14T08:42:39;9.50;99.90
33717;DHT22;20046;50.746;7.072;2023-02-14T08:45:05;9.30;99.90
33717;DHT22;20046;50.746;7.072;2023-02-14T08:47:32;9.40;99.90
33717;DHT22;20046;50.746;7.072;2023-02-14T08:50:04;9.30;99.90
33717;DHT22;20046;50.746;7.072;2023-02-14T08:52:30;9.00;99.90
33717;DHT22;20046;50.746;7.072;2023-02-14T08:54:55;9.20;99.90
33717;DHT22;20046;50.746;7.072;2023-02-14T08:57:21;8.90;99.90
33717;DHT22;20046;50.746;7.072;2023-02-14T08:59:47;8.80;99.90
33717;DHT22;20046;50.746;7.072;2023-02-14T09:02:13;8.70;99.90
33717;DHT22;20046;50.746;7.072;2023-02-14T09:04:38;8.80;99.90
33717;DHT22;20046;50.746;7.072;2023-02-14T09:07:04;8.90;99.90
33717;DHT22;20046;50.746;7.072;2023-02-14T09:09:30;9.30;99.90
33717;DHT22;20046;50.746;7.072;2023-02-14T09:11:56;9.40;99.90
33717;DHT22;20046;50.746;7.072;2023-02-14T09:14:22;8.80;99.90
33717;DHT22;20046;50.746;7.072;2023-02-14T09:16:49;9.10;99.90
33717;DHT22;20046;50.746;7.072;2023-02-14T09:19:14;9.40;99.90
33717;DHT22;20046;50.746;7.072;2023-02-14T09:21:40;9.60;99.90
33717;DHT22;20046;50.746;7.072;2023-02-14T09:24:06;9.40;99.90
33717;DHT22;20046;50.746;7.072;2023-02-14T09:26:31;9.10;99.90
33717;DHT22;20046;50.746;7.072;2023-02-14T09:28:57;9.10;99.90
33717;DHT22;20046;50.746;7.072;2023-02-14T09:31:23;9.40;99.90
33717;DHT22;20046;50.746;7.072;2023-02-14T09:33:50;9.60;99.90
33717;DHT22;20046;50.746;7.072;2023-02-14T09:36:16;9.70;99.90
33717;DHT22;20046;50.746;7.072;2023-02-14T09:39:00;9.90;99.90
33717;DHT22;20046;50.746;7.072;2023-02-14T09:46:28;11.90;99.90
33717;DHT22;20046;50.746;7.072;2023-02-14T09:48:55;12.60;99.90
33717;DHT22;20046;50.746;7.072;2023-02-14T09:51:26;12.50;99.90
33717;DHT22;20046;50.746;7.072;2023-02-14T09:54:11;12.20;99.90
33717;DHT22;20046;50.746;7.072;2023-02-14T10:04:47;11.40;99.90
33717;DHT22;20046;50.746;7.072;2023-02-14T10:09:57;11.50;99.90
33717;DHT22;20046;50.746;7.072;2023-02-14T10:12:37;11.60;99.90
33717;DHT22;20046;50.746;7.072;2023-02-14T10:15:12;12.00;99.90
33717;DHT22;20046;50.746;7.072;2023-02-14T10:17:43;11.60;99.90
33717;DHT22;20046;50.746;7.072;2023-02-14T10:22:56;11.50;99.90
33717;DHT22;20046;50.746;7.072;2023-02-14T10:25:28;11.70;99.90
33717;DHT22;20046;50.746;7.072;2023-02-14T10:27:57;11.80;99.90
33717;DHT22;20046;50.746;7.072;2023-02-14T10:30:25;12.80;99.90
33717;DHT22;20046;50.746;7.072;2023-02-14T10:33:16;13.10;99.90
33717;DHT22;20046;50.746;7.072;2023-02-14T10:35:49;13.40;99.90
33717;DHT22;20046;50.746;7.072;2023-02-14T10:38:26;13.30;99.90
33717;DHT22;20046;50.746;7.072;2023-02-14T10:54:27;14.30;99.90
33717;DHT22;20046;50.746;7.072;2023-02-14T11:00:05;14.20;99.90
33717;DHT22;20046;50.746;7.072;2023-02-14T11:02:43;14.60;99.90
33717;DHT22;20046;50.746;7.072;2023-02-14T11:06:02;14.40;99.90
33717;DHT22;20046;50.746;7.072;2023-02-14T11:08:36;14.70;99.90
33717;DHT22;20046;50.746;7.072;2023-02-14T11:13:43;14.50;99.90
33717;DHT22;20046;50.746;7.072;2023-02-14T11:16:11;15.50;99.90
33717;DHT22;20046;50.746;7.072;2023-02-14T11:18:39;15.90;98.80
33717;DHT22;20046;50.746;7.072;2023-02-14T11:21:14;16.10;97.90
33717;DHT22;20046;50.746;7.072;2023-02-14T11:23:44;16.00;98.10
33717;DHT22;20046;50.746;7.072;2023-02-14T11:26:32;16.50;97.40
33717;DHT22;20046;50.746;7.072;2023-02-14T11:29:00;17.10;96.90
33717;DHT22;20046;50.746;7.072;2023-02-14T11:31:32;16.50;95.50
33717;DHT22;20046;50.746;7.072;2023-02-14T11:33:59;15.60;95.80
33717;DHT22;20046;50.746;7.072;2023-02-14T11:36:26;15.30;96.70
33717;DHT22;20046;50.746;7.072;2023-02-14T11:39:09;14.60;97.30
33717;DHT22;20046;50.746;7.072;2023-02-14T11:41:49;14.80;97.60
33717;DHT22;20046;50.746;7.072;2023-02-14T11:44:19;15.30;97.10
33717;DHT22;20046;50.746;7.072;2023-02-14T11:46:52;15.90;96.00
33717;DHT22;20046;50.746;7.072;2023-02-14T11:49:32;16.50;95.50
33717;DHT22;20046;50.746;7.072;2023-02-14T11:52:09;17.10;94.40
33717;DHT22;20046;50.746;7.072;2023-02-14T11:54:38;17.90;93.00
33717;DHT22;20046;50.746;7.072;2023-02-14T11:57:05;18.20;92.30
33717;DHT22;20046;50.746;7.072;2023-02-14T11:59:47;18.10;91.80
33717;DHT22;20046;50.746;7.072;2023-02-14T12:04:52;18.10;90.30
33717;DHT22;20046;50.746;7.072;2023-02-14T12:07:31;18.20;90.30
33717;DHT22;20046;50.746;7.072;2023-02-14T12:10:30;18.50;88.60
33717;DHT22;20046;50.746;7.072;2023-02-14T12:15:34;17.90;88.70
33717;DHT22;20046;50.746;7.072;2023-02-14T12:26:23;19.40;86.30
33717;DHT22;20046;50.746;7.072;2023-02-14T12:31:37;19.50;82.40
33717;DHT22;20046;50.746;7.072;2023-02-14T12:34:03;19.60;81.30
33717;DHT22;20046;50.746;7.072;2023-02-14T12:53:29;22.30;71.40
33717;DHT22;20046;50.746;7.072;2023-02-14T13:04:16;22.30;69.20
33717;DHT22;20046;50.746;7.072;2023-02-14T13:07:13;22.40;69.30
33717;DHT22;20046;50.746;7.072;2023-02-14T13:14:50;21.90;67.80
33717;DHT22;20046;50.746;7.072;2023-02-14T13:20:35;21.50;68.20
33717;DHT22;20046;50.746;7.072;2023-02-14T13:23:27;21.10;69.30
33717;DHT22;20046;50.746;7.072;2023-02-14T13:26:01;21.60;68.90
33717;DHT22;20046;50.746;7.072;2023-02-14T13:28:29;21.60;69.20
33717;DHT22;20046;50.746;7.072;2023-02-14T13:30:57;21.50;69.30
33717;DHT22;20046;50.746;7.072;2023-02-14T13:33:43;21.60;68.40
33717;DHT22;20046;50.746;7.072;2023-02-14T13:36:13;21.60;69.10
33717;DHT22;20046;50.746;7.072;2023-02-14T13:38:51;20.80;69.50
33717;DHT22;20046;50.746;7.072;2023-02-14T13:41:19;20.50;70.10
33717;DHT22;20046;50.746;7.072;2023-02-14T13:46:44;19.90;72.00
33717;DHT22;20046;50.746;7.072;2023-02-14T13:49:27;20.50;71.00
33717;DHT22;20046;50.746;7.072;2023-02-14T13:51:55;19.30;72.70
33717;DHT22;20046;50.746;7.072;2023-02-14T13:56:57;16.10;78.80
33717;DHT22;20046;50.746;7.072;2023-02-14T13:59:29;15.30;81.60
33717;DHT22;20046;50.746;7.072;2023-02-14T14:03:01;16.30;81.00
33717;DHT22;20046;50.746;7.072;2023-02-14T14:10:54;18.70;75.80
33717;DHT22;20046;50.746;7.072;2023-02-14T14:19:33;17.70;78.20
33717;DHT22;20046;50.746;7.072;2023-02-14T14:21:35;18.00;77.40
33717;DHT22;20046;50.746;7.072;2023-02-14T14:24:20;18.60;77.40
33717;DHT22;20046;50.746;7.072;2023-02-14T14:26:50;18.60;75.90
33717;DHT22;20046;50.746;7.072;2023-02-14T14:31:58;18.20;76.40
33717;DHT22;20046;50.746;7.072;2023-02-14T14:34:26;17.70;77.50
33717;DHT22;20046;50.746;7.072;2023-02-14T14:37:04;17.40;78.90
33717;DHT22;20046;50.746;7.072;2023-02-14T14:39:33;17.40;79.60
33717;DHT22;20046;50.746;7.072;2023-02-14T14:42:13;17.00;80.10
33717;DHT22;20046;50.746;7.072;2023-02-14T14:44:55;16.50;80.70
33717;DHT22;20046;50.746;7.072;2023-02-14T14:47:34;16.10;82.00
33717;DHT22;20046;50.746;7.072;2023-02-14T14:50:07;15.90;82.80
33717;DHT22;20046;50.746;7.072;2023-02-14T14:52:37;15.50;83.60
33717;DHT22;20046;50.746;7.072;2023-02-14T14:55:05;15.60;83.90
33717;DHT22;20046;50.746;7.072;2023-02-14T14:57:34;15.20;84.70
33717;DHT22;20046;50.746;7.072;2023-02-14T15:00:06;15.00;85.70
33717;DHT22;20046;50.746;7.072;2023-02-14T15:02:34;15.10;85.80
33717;DHT22;20046;50.746;7.072;2023-02-14T15:05:24;15.50;85.60
33717;DHT22;20046;50.746;7.072;2023-02-14T15:07:50;15.50;84.80
33717;DHT22;20046;50.746;7.072;2023-02-14T15:10:21;14.90;85.00
33717;DHT22;20046;50.746;7.072;2023-02-14T15:12:49;14.50;86.60
33717;DHT22;20046;50.746;7.072;2023-02-14T15:15:33;14.00;87.70
33717;DHT22;20046;50.746;7.072;2023-02-14T15:18:04;13.80;88.90
33717;DHT22;20046;50.746;7.072;2023-02-14T15:20:30;13.80;89.10
33717;DHT22;20046;50.746;7.072;2023-02-14T15:22:56;13.80;89.80
33717;DHT22;20046;50.746;7.072;2023-02-14T15:25:30;13.90;90.00
33717;DHT22;20046;50.746;7.072;2023-02-14T15:27:56;13.90;90.00
33717;DHT22;20046;50.746;7.072;2023-02-14T15:30:25;14.00;89.90
33717;DHT22;20046;50.746;7.072;2023-02-14T15:32:53;13.70;90.20
33717;DHT22;20046;50.746;7.072;2023-02-14T15:35:28;13.60;90.30
33717;DHT22;20046;50.746;7.072;2023-02-14T15:37:56;13.20;90.70
33717;DHT22;20046;50.746;7.072;2023-02-14T15:40:28;12.70;91.20
33717;DHT22;20046;50.746;7.072;2023-02-14T15:42:59;12.60;91.70
33717;DHT22;20046;50.746;7.072;2023-02-14T15:48:20;12.20;92.60
33717;DHT22;20046;50.746;7.072;2023-02-14T15:50:51;11.90;93.10
33717;DHT22;20046;50.746;7.072;2023-02-14T15:55:46;11.50;94.00
33717;DHT22;20046;50.746;7.072;2023-02-14T15:58:21;11.40;94.30
33717;DHT22;20046;50.746;7.072;2023-02-14T16:00:48;11.30;94.90
33717;DHT22;20046;50.746;7.072;2023-02-14T16:03:23;11.10;95.20
33717;DHT22;20046;50.746;7.072;2023-02-14T16:05:50;10.90;95.80
33717;DHT22;20046;50.746;7.072;2023-02-14T16:08:36;10.80;96.40
33717;DHT22;20046;50.746;7.072;2023-02-14T16:11:05;10.70;96.90
33717;DHT22;20046;50.746;7.072;2023-02-14T16:13:36;10.60;97.30
33717;DHT22;20046;50.746;7.072;2023-02-14T16:16:10;10.50;97.70
33717;DHT22;20046;50.746;7.072;2023-02-14T16:18:45;10.40;98.20
33717;DHT22;20046;50.746;7.072;2023-02-14T16:21:28;10.40;98.80
33717;DHT22;20046;50.746;7.072;2023-02-14T16:26:32;10.20;99.70
33717;DHT22;20046;50.746;7.072;2023-02-14T16:29:00;10.10;99.90
33717;DHT22;20046;50.746;7.072;2023-02-14T16:31:26;10.00;99.90
33717;DHT22;20046;50.746;7.072;2023-02-14T16:33:51;10.00;99.90
33717;DHT22;20046;50.746;7.072;2023-02-14T16:36:25;9.80;99.90
33717;DHT22;20046;50.746;7.072;2023-02-14T16:38:52;9.80;99.90
33717;DHT22;20046;50.746;7.072;2023-02-14T16:41:20;9.70;99.90
33717;DHT22;20046;50.746;7.072;2023-02-14T16:43:46;9.60;99.90
33717;DHT22;20046;50.746;7.072;2023-02-14T16:46:15;9.60;99.90
33717;DHT22;20046;50.746;7.072;2023-02-14T16:48:41;9.50;99.90
33717;DHT22;20046;50.746;7.072;2023-02-14T16:51:12;9.50;99.90
33717;DHT22;20046;50.746;7.072;2023-02-14T16:53:39;9.50;99.90
33717;DHT22;20046;50.746;7.072;2023-02-14T16:56:32;9.40;99.90
33717;DHT22;20046;50.746;7.072;2023-02-14T16:58:55;9.40;99.90
33717;DHT22;20046;50.746;7.072;2023-02-14T17:01:24;9.30;99.90
33717;DHT22;20046;50.746;7.072;2023-02-14T17:03:50;9.30;99.90
33717;DHT22;20046;50.746;7.072;2023-02-14T17:06:20;9.20;99.90
33717;DHT22;20046;50.746;7.072;2023-02-14T17:08:49;9.10;99.90
33717;DHT22;20046;50.746;7.072;2023-02-14T17:11:16;9.00;99.90
33717;DHT22;20046;50.746;7.072;2023-02-14T17:13:42;8.90;99.90
33717;DHT22;20046;50.746;7.072;2023-02-14T17:16:09;8.80;99.90
33717;DHT22;20046;50.746;7.072;2023-02-14T17:18:37;8.70;99.90
33717;DHT22;20046;50.746;7.072;2023-02-14T17:21:03;8.70;99.90
33717;DHT22;20046;50.746;7.072;2023-02-14T17:23:29;8.70;99.90
33717;DHT22;20046;50.746;7.072;2023-02-14T17:25:55;8.70;99.90
33717;DHT22;20046;50.746;7.072;2023-02-14T17:28:21;8.70;99.90
33717;DHT22;20046;50.746;7.072;2023-02-14T17:30:46;8.60;99.90
33717;DHT22;20046;50.746;7.072;2023-02-14T17:33:12;8.50;99.90
33717;DHT22;20046;50.746;7.072;2023-02-14T17:35:38;8.50;99.90
33717;DHT22;20046;50.746;7.072;2023-02-14T17:38:04;8.40;99.90
33717;DHT22;20046;50.746;7.072;2023-02-14T17:40:30;8.30;99.90
33717;DHT22;20046;50.746;7.072;2023-02-14T17:42:56;8.20;99.90
33717;DHT22;20046;50.746;7.072;2023-02-14T17:45:21;8.10;99.90
33717;DHT22;20046;50.746;7.072;2023-02-14T17:47:47;8.00;99.90
33717;DHT22;20046;50.746;7.072;2023-02-14T17:50:13;8.00;99.90
33717;DHT22;20046;50.746;7.072;2023-02-14T17:52:40;7.90;99.90
33717;DHT22;20046;50.746;7.072;2023-02-14T17:55:07;7.90;99.90
33717;DHT22;20046;50.746;7.072;2023-02-14T17:57:34;7.80;99.90
33717;DHT22;20046;50.746;7.072;2023-02-14T18:00:00;7.70;99.90
33717;DHT22;20046;50.746;7.072;2023-02-14T18:02:27;7.60;99.90
33717;DHT22;20046;50.746;7.072;2023-02-14T18:04:53;7.60;99.90
33717;DHT22;20046;50.746;7.072;2023-02-14T18:07:19;7.50;99.90
33717;DHT22;20046;50.746;7.072;2023-02-14T18:09:45;7.50;99.90
33717;DHT22;20046;50.746;7.072;2023-02-14T18:12:11;7.40;99.90
33717;DHT22;20046;50.746;7.072;2023-02-14T18:14:36;7.40;99.90
33717;DHT22;20046;50.746;7.072;2023-02-14T18:17:02;7.30;99.90
33717;DHT22;20046;50.746;7.072;2023-02-14T18:19:28;7.20;99.90
33717;DHT22;20046;50.746;7.072;2023-02-14T18:21:54;7.20;99.90
33717;DHT22;20046;50.746;7.072;2023-02-14T18:24:20;7.20;99.90
33717;DHT22;20046;50.746;7.072;2023-02-14T18:26:45;7.10;99.90
33717;DHT22;20046;50.746;7.072;2023-02-14T18:29:11;7.10;99.90
33717;DHT22;20046;50.746;7.072;2023-02-14T18:31:39;7.00;99.90
33717;DHT22;20046;50.746;7.072;2023-02-14T18:34:05;6.90;99.90
33717;DHT22;20046;50.746;7.072;2023-02-14T18:36:33;6.90;99.90
33717;DHT22;20046;50.746;7.072;2023-02-14T18:38:59;6.80;99.90
33717;DHT22;20046;50.746;7.072;2023-02-14T18:41:25;6.70;99.90
33717;DHT22;20046;50.746;7.072;2023-02-14T18:43:51;6.70;99.90
33717;DHT22;20046;50.746;7.072;2023-02-14T18:46:20;6.60;99.90
33717;DHT22;20046;50.746;7.072;2023-02-14T18:48:46;6.60;99.90
33717;DHT22;20046;50.746;7.072;2023-02-14T18:51:19;6.50;99.90
33717;DHT22;20046;50.746;7.072;2023-02-14T18:53:45;6.50;99.90
33717;DHT22;20046;50.746;7.072;2023-02-14T18:56:14;6.40;99.90
33717;DHT22;20046;50.746;7.072;2023-02-14T18:58:41;6.40;99.90
33717;DHT22;20046;50.746;7.072;2023-02-14T19:01:13;6.30;99.90
33717;DHT22;20046;50.746;7.072;2023-02-14T19:03:39;6.30;99.90
33717;DHT22;20046;50.746;7.072;2023-02-14T19:06:06;6.20;99.90
33717;DHT22;20046;50.746;7.072;2023-02-14T19:08:33;6.20;99.90
33717;DHT22;20046;50.746;7.072;2023-02-14T19:10:59;6.10;99.90
33717;DHT22;20046;50.746;7.072;2023-02-14T19:13:25;6.10;99.90